sensor_id;sensor_type;location;lat;lon;timestamp;temperature;humidity
45044;DHT22;30784;48.490;9.688;2023-03-01T00:01:37;2.00;52.00
45044;DHT22;30784;48.490;9.688;2023-03-01T00:04:03;2.00;52.10
45044;DHT22;30784;48.490;9.688;2023-03-01T00:06:28;2.10;52.30
45044;DHT22;30784;48.490;9.688;2023-03-01T00:08:54;2.10;52.30
45044;DHT22;30784;48.490;9.688;2023-03-01T00:11:25;2.10;52.20
45044;DHT22;30784;48.490;9.688;2023-03-01T00:13:53;2.10;52.50
45044;DHT22;30784;48.490;9.688;2023-03-01T00:16:22;2.10;52.30
45044;DHT22;30784;48.490;9.688;2023-03-01T00:18:48;2.10;52.40
45044;DHT22;30784;48.490;9.688;2023-03-01T00:21:14;2.10;52.50
45044;DHT22;30784;48.490;9.688;2023-03-01T00:23:39;2.10;52.40
45044;DHT22;30784;48.490;9.688;2023-03-01T00:26:10;2.20;52.40
45044;DHT22;30784;48.490;9.688;2023-03-01T00:28:36;2.20;52.80
45044;DHT22;30784;48.490;9.688;2023-03-01T00:31:06;2.20;52.30
45044;DHT22;30784;48.490;9.688;2023-03-01T00:33:32;2.20;52.50
45044;DHT22;30784;48.490;9.688;2023-03-01T00:35:58;2.20;52.20
45044;DHT22;30784;48.490;9.688;2023-03-01T00:38:24;2.20;52.30
45044;DHT22;30784;48.490;9.688;2023-03-01T00:40:49;2.20;52.40
45044;DHT22;30784;48.490;9.688;2023-03-01T00:43:15;2.20;52.40
45044;DHT22;30784;48.490;9.688;2023-03-01T00:45:40;2.20;52.40
45044;DHT22;30784;48.490;9.688;2023-03-01T00:48:06;2.20;52.50
45044;DHT22;30784;48.490;9.688;2023-03-01T00:50:32;2.20;52.40
45044;DHT22;30784;48.490;9.688;2023-03-01T00:52:57;2.20;52.40
45044;DHT22;30784;48.490;9.688;2023-03-01T00:55:23;2.20;52.50
45044;DHT22;30784;48.490;9.688;2023-03-01T00:57:49;2.20;52.60
45044;DHT22;30784;48.490;9.688;2023-03-01T01:00:15;2.20;52.50
45044;DHT22;30784;48.490;9.688;2023-03-01T01:02:41;2.20;52.70
45044;DHT22;30784;48.490;9.688;2023-03-01T01:05:06;2.20;52.70
45044;DHT22;30784;48.490;9.688;2023-03-01T01:07:32;2.20;52.60
45044;DHT22;30784;48.490;9.688;2023-03-01T01:09:58;2.20;52.80
45044;DHT22;30784;48.490;9.688;2023-03-01T01:12:23;2.20;52.70
45044;DHT22;30784;48.490;9.688;2023-03-01T01:14:49;2.20;52.70
45044;DHT22;30784;48.490;9.688;2023-03-01T01:17:14;2.20;52.90
45044;DHT22;30784;48.490;9.688;2023-03-01T01:19:40;2.20;52.90
45044;DHT22;30784;48.490;9.688;2023-03-01T01:22:05;2.20;52.90
45044;DHT22;30784;48.490;9.688;2023-03-01T01:24:31;2.30;52.90
45044;DHT22;30784;48.490;9.688;2023-03-01T01:26:56;2.30;53.00
45044;DHT22;30784;48.490;9.688;2023-03-01T01:29:22;2.30;53.00
45044;DHT22;30784;48.490;9.688;2023-03-01T01:31:48;2.30;53.00
45044;DHT22;30784;48.490;9.688;2023-03-01T01:34:17;2.30;53.00
45044;DHT22;30784;48.490;9.688;2023-03-01T01:36:44;2.30;53.10
45044;DHT22;30784;48.490;9.688;2023-03-01T01:39:12;2.30;53.00
45044;DHT22;30784;48.490;9.688;2023-03-01T01:41:39;2.30;53.20
45044;DHT22;30784;48.490;9.688;2023-03-01T01:44:19;2.30;53.20
45044;DHT22;30784;48.490;9.688;2023-03-01T01:46:52;2.30;53.20
45044;DHT22;30784;48.490;9.688;2023-03-01T01:49:36;2.30;53.20
45044;DHT22;30784;48.490;9.688;2023-03-01T01:54:41;2.30;53.10
45044;DHT22;30784;48.490;9.688;2023-03-01T01:57:11;2.30;53.20
45044;DHT22;30784;48.490;9.688;2023-03-01T01:59:39;2.30;53.20
45044;DHT22;30784;48.490;9.688;2023-03-01T02:02:06;2.40;53.50
45044;DHT22;30784;48.490;9.688;2023-03-01T02:04:32;2.40;53.30
45044;DHT22;30784;48.490;9.688;2023-03-01T02:07:02;2.40;53.30
45044;DHT22;30784;48.490;9.688;2023-03-01T02:09:30;2.40;53.30
45044;DHT22;30784;48.490;9.688;2023-03-01T02:11:58;2.40;53.40
45044;DHT22;30784;48.490;9.688;2023-03-01T02:14:23;2.40;53.30
45044;DHT22;30784;48.490;9.688;2023-03-01T02:16:49;2.50;53.30
45044;DHT22;30784;48.490;9.688;2023-03-01T02:19:39;2.50;53.30
45044;DHT22;30784;48.490;9.688;2023-03-01T02:25:04;2.50;53.10
45044;DHT22;30784;48.490;9.688;2023-03-01T02:27:38;2.60;53.30
45044;DHT22;30784;48.490;9.688;2023-03-01T02:30:06;2.60;53.20
45044;DHT22;30784;48.490;9.688;2023-03-01T02:32:33;2.60;53.20
45044;DHT22;30784;48.490;9.688;2023-03-01T02:34:59;2.60;53.20
45044;DHT22;30784;48.490;9.688;2023-03-01T02:37:26;2.60;53.20
45044;DHT22;30784;48.490;9.688;2023-03-01T02:39:59;2.60;53.20
45044;DHT22;30784;48.490;9.688;2023-03-01T02:42:33;2.60;53.20
45044;DHT22;30784;48.490;9.688;2023-03-01T02:45:00;2.60;53.20
45044;DHT22;30784;48.490;9.688;2023-03-01T02:47:26;2.60;53.10
45044;DHT22;30784;48.490;9.688;2023-03-01T02:49:52;2.60;53.20
45044;DHT22;30784;48.490;9.688;2023-03-01T02:52:46;2.60;53.10
45044;DHT22;30784;48.490;9.688;2023-03-01T02:55:17;2.60;53.00
45044;DHT22;30784;48.490;9.688;2023-03-01T02:57:44;2.60;53.20
45044;DHT22;30784;48.490;9.688;2023-03-01T03:00:18;2.60;53.20
45044;DHT22;30784;48.490;9.688;2023-03-01T03:02:45;2.70;53.20
45044;DHT22;30784;48.490;9.688;2023-03-01T03:05:14;2.70;53.30
45044;DHT22;30784;48.490;9.688;2023-03-01T03:07:43;2.60;53.20
45044;DHT22;30784;48.490;9.688;2023-03-01T03:10:19;2.70;53.30
45044;DHT22;30784;48.490;9.688;2023-03-01T03:12:57;2.60;53.10
45044;DHT22;30784;48.490;9.688;2023-03-01T03:15:25;2.70;53.20
45044;DHT22;30784;48.490;9.688;2023-03-01T03:17:51;2.60;53.30
45044;DHT22;30784;48.490;9.688;2023-03-01T03:20:20;2.60;53.30
45044;DHT22;30784;48.490;9.688;2023-03-01T03:22:50;2.60;53.30
45044;DHT22;30784;48.490;9.688;2023-03-01T03:25:16;2.60;53.40
45044;DHT22;30784;48.490;9.688;2023-03-01T03:27:43;2.70;53.10
45044;DHT22;30784;48.490;9.688;2023-03-01T03:30:12;2.60;53.30
45044;DHT22;30784;48.490;9.688;2023-03-01T03:32:43;2.60;53.30
45044;DHT22;30784;48.490;9.688;2023-03-01T03:35:28;2.60;53.30
45044;DHT22;30784;48.490;9.688;2023-03-01T03:37:59;2.60;53.40
45044;DHT22;30784;48.490;9.688;2023-03-01T03:40:36;2.60;53.40
45044;DHT22;30784;48.490;9.688;2023-03-01T03:43:06;2.60;53.50
45044;DHT22;30784;48.490;9.688;2023-03-01T03:45:32;2.60;53.60
45044;DHT22;30784;48.490;9.688;2023-03-01T03:47:59;2.70;53.20
45044;DHT22;30784;48.490;9.688;2023-03-01T03:50:24;2.70;53.50
45044;DHT22;30784;48.490;9.688;2023-03-01T03:52:50;2.60;53.40
45044;DHT22;30784;48.490;9.688;2023-03-01T03:55:15;2.70;53.50
45044;DHT22;30784;48.490;9.688;2023-03-01T03:57:46;2.60;53.50
45044;DHT22;30784;48.490;9.688;2023-03-01T04:00:21;2.60;53.60
45044;DHT22;30784;48.490;9.688;2023-03-01T04:02:47;2.60;53.60
45044;DHT22;30784;48.490;9.688;2023-03-01T04:05:16;2.60;53.70
45044;DHT22;30784;48.490;9.688;2023-03-01T04:07:42;2.60;53.70
45044;DHT22;30784;48.490;9.688;2023-03-01T04:10:11;2.60;53.80
45044;DHT22;30784;48.490;9.688;2023-03-01T04:12:37;2.60;53.70
45044;DHT22;30784;48.490;9.688;2023-03-01T04:15:04;2.60;53.80
45044;DHT22;30784;48.490;9.688;2023-03-01T04:17:45;2.60;53.80
45044;DHT22;30784;48.490;9.688;2023-03-01T04:20:14;2.60;53.80
45044;DHT22;30784;48.490;9.688;2023-03-01T04:22:43;2.60;53.80
45044;DHT22;30784;48.490;9.688;2023-03-01T04:25:11;2.60;53.80
45044;DHT22;30784;48.490;9.688;2023-03-01T04:27:40;2.60;53.80
45044;DHT22;30784;48.490;9.688;2023-03-01T04:30:06;2.50;53.90
45044;DHT22;30784;48.490;9.688;2023-03-01T04:32:32;2.50;53.90
45044;DHT22;30784;48.490;9.688;2023-03-01T04:34:58;2.50;54.00
45044;DHT22;30784;48.490;9.688;2023-03-01T04:37:24;2.50;53.90
45044;DHT22;30784;48.490;9.688;2023-03-01T04:39:52;2.50;54.00
45044;DHT22;30784;48.490;9.688;2023-03-01T04:42:18;2.50;54.00
45044;DHT22;30784;48.490;9.688;2023-03-01T04:44:44;2.50;54.10
45044;DHT22;30784;48.490;9.688;2023-03-01T04:47:10;2.50;54.10
45044;DHT22;30784;48.490;9.688;2023-03-01T04:49:36;2.50;54.10
45044;DHT22;30784;48.490;9.688;2023-03-01T04:52:02;2.50;54.10
45044;DHT22;30784;48.490;9.688;2023-03-01T04:54:29;2.50;54.20
45044;DHT22;30784;48.490;9.688;2023-03-01T04:56:55;2.50;54.30
45044;DHT22;30784;48.490;9.688;2023-03-01T04:59:21;2.40;54.30
45044;DHT22;30784;48.490;9.688;2023-03-01T05:01:50;2.40;54.30
45044;DHT22;30784;48.490;9.688;2023-03-01T05:04:16;2.40;54.30
45044;DHT22;30784;48.490;9.688;2023-03-01T05:06:42;2.40;54.30
45044;DHT22;30784;48.490;9.688;2023-03-01T05:09:07;2.40;54.40
45044;DHT22;30784;48.490;9.688;2023-03-01T05:11:33;2.40;54.40
45044;DHT22;30784;48.490;9.688;2023-03-01T05:14:02;2.40;54.50
45044;DHT22;30784;48.490;9.688;2023-03-01T05:16:28;2.40;54.40
45044;DHT22;30784;48.490;9.688;2023-03-01T05:18:53;2.40;54.50
45044;DHT22;30784;48.490;9.688;2023-03-01T05:21:21;2.40;54.50
45044;DHT22;30784;48.490;9.688;2023-03-01T05:23:46;2.40;54.50
45044;DHT22;30784;48.490;9.688;2023-03-01T05:26:12;2.40;54.50
45044;DHT22;30784;48.490;9.688;2023-03-01T05:28:39;2.50;54.50
45044;DHT22;30784;48.490;9.688;2023-03-01T05:31:05;2.50;54.50
45044;DHT22;30784;48.490;9.688;2023-03-01T05:33:38;2.50;54.50
45044;DHT22;30784;48.490;9.688;2023-03-01T05:36:08;2.50;54.50
45044;DHT22;30784;48.490;9.688;2023-03-01T05:38:35;2.50;54.40
45044;DHT22;30784;48.490;9.688;2023-03-01T05:41:01;2.50;54.30
45044;DHT22;30784;48.490;9.688;2023-03-01T05:43:30;2.50;54.30
45044;DHT22;30784;48.490;9.688;2023-03-01T05:45:59;2.50;54.30
45044;DHT22;30784;48.490;9.688;2023-03-01T05:48:25;2.50;54.30
45044;DHT22;30784;48.490;9.688;2023-03-01T05:50:51;2.50;54.30
45044;DHT22;30784;48.490;9.688;2023-03-01T05:53:18;2.50;54.20
45044;DHT22;30784;48.490;9.688;2023-03-01T05:55:47;2.40;54.10
45044;DHT22;30784;48.490;9.688;2023-03-01T05:58:16;2.40;54.10
45044;DHT22;30784;48.490;9.688;2023-03-01T06:00:44;2.40;54.10
45044;DHT22;30784;48.490;9.688;2023-03-01T06:03:14;2.40;54.00
45044;DHT22;30784;48.490;9.688;2023-03-01T06:05:41;2.40;54.00
45044;DHT22;30784;48.490;9.688;2023-03-01T06:08:08;2.40;54.10
45044;DHT22;30784;48.490;9.688;2023-03-01T06:10:34;2.40;54.00
45044;DHT22;30784;48.490;9.688;2023-03-01T06:13:00;2.30;53.90
45044;DHT22;30784;48.490;9.688;2023-03-01T06:15:26;2.30;53.90
45044;DHT22;30784;48.490;9.688;2023-03-01T06:17:54;2.30;54.00
45044;DHT22;30784;48.490;9.688;2023-03-01T06:20:24;2.30;54.50
45044;DHT22;30784;48.490;9.688;2023-03-01T06:22:50;2.20;54.00
45044;DHT22;30784;48.490;9.688;2023-03-01T06:25:19;2.20;54.00
45044;DHT22;30784;48.490;9.688;2023-03-01T06:27:45;2.20;54.00
45044;DHT22;30784;48.490;9.688;2023-03-01T06:30:13;2.20;54.00
45044;DHT22;30784;48.490;9.688;2023-03-01T06:32:40;2.10;54.00
45044;DHT22;30784;48.490;9.688;2023-03-01T06:35:07;2.10;54.00
45044;DHT22;30784;48.490;9.688;2023-03-01T06:37:33;2.10;54.10
45044;DHT22;30784;48.490;9.688;2023-03-01T06:40:00;2.10;54.20
45044;DHT22;30784;48.490;9.688;2023-03-01T06:42:30;2.10;54.20
45044;DHT22;30784;48.490;9.688;2023-03-01T06:44:55;2.10;54.30
45044;DHT22;30784;48.490;9.688;2023-03-01T06:47:21;2.00;54.30
45044;DHT22;30784;48.490;9.688;2023-03-01T06:49:46;2.00;54.30
45044;DHT22;30784;48.490;9.688;2023-03-01T06:52:12;2.00;54.40
45044;DHT22;30784;48.490;9.688;2023-03-01T06:54:37;2.00;54.50
45044;DHT22;30784;48.490;9.688;2023-03-01T06:57:03;2.00;54.50
45044;DHT22;30784;48.490;9.688;2023-03-01T06:59:28;2.10;54.50
45044;DHT22;30784;48.490;9.688;2023-03-01T07:01:54;2.10;54.60
45044;DHT22;30784;48.490;9.688;2023-03-01T07:04:19;2.10;54.60
45044;DHT22;30784;48.490;9.688;2023-03-01T07:06:45;2.10;54.60
45044;DHT22;30784;48.490;9.688;2023-03-01T07:09:10;2.20;54.60
45044;DHT22;30784;48.490;9.688;2023-03-01T07:11:36;2.20;54.60
45044;DHT22;30784;48.490;9.688;2023-03-01T07:14:01;2.20;54.60
45044;DHT22;30784;48.490;9.688;2023-03-01T07:16:27;2.30;54.60
45044;DHT22;30784;48.490;9.688;2023-03-01T07:18:53;2.30;54.60
45044;DHT22;30784;48.490;9.688;2023-03-01T07:21:18;2.30;54.50
45044;DHT22;30784;48.490;9.688;2023-03-01T07:23:43;2.40;54.50
45044;DHT22;30784;48.490;9.688;2023-03-01T07:26:12;2.40;54.50
45044;DHT22;30784;48.490;9.688;2023-03-01T07:28:37;2.50;54.60
45044;DHT22;30784;48.490;9.688;2023-03-01T07:31:05;2.50;54.60
45044;DHT22;30784;48.490;9.688;2023-03-01T07:33:32;2.60;54.40
45044;DHT22;30784;48.490;9.688;2023-03-01T07:35:59;2.70;54.50
45044;DHT22;30784;48.490;9.688;2023-03-01T07:38:25;2.80;54.40
45044;DHT22;30784;48.490;9.688;2023-03-01T07:40:50;2.80;54.40
45044;DHT22;30784;48.490;9.688;2023-03-01T07:43:16;2.90;54.20
45044;DHT22;30784;48.490;9.688;2023-03-01T07:45:41;3.00;54.10
45044;DHT22;30784;48.490;9.688;2023-03-01T07:48:07;3.10;54.10
45044;DHT22;30784;48.490;9.688;2023-03-01T07:50:32;3.20;53.70
45044;DHT22;30784;48.490;9.688;2023-03-01T07:52:58;3.30;53.70
45044;DHT22;30784;48.490;9.688;2023-03-01T07:55:24;3.30;53.60
45044;DHT22;30784;48.490;9.688;2023-03-01T07:57:49;3.40;53.40
45044;DHT22;30784;48.490;9.688;2023-03-01T08:00:15;3.50;53.30
45044;DHT22;30784;48.490;9.688;2023-03-01T08:02:41;3.50;52.70
45044;DHT22;30784;48.490;9.688;2023-03-01T08:05:08;3.60;52.50
45044;DHT22;30784;48.490;9.688;2023-03-01T08:07:34;3.60;52.40
45044;DHT22;30784;48.490;9.688;2023-03-01T08:10:00;3.70;52.30
45044;DHT22;30784;48.490;9.688;2023-03-01T08:12:25;3.70;52.10
45044;DHT22;30784;48.490;9.688;2023-03-01T08:14:52;3.70;52.10
45044;DHT22;30784;48.490;9.688;2023-03-01T08:17:18;3.70;51.90
45044;DHT22;30784;48.490;9.688;2023-03-01T08:19:44;3.70;51.50
45044;DHT22;30784;48.490;9.688;2023-03-01T08:22:10;3.70;51.50
45044;DHT22;30784;48.490;9.688;2023-03-01T08:24:35;3.70;51.10
45044;DHT22;30784;48.490;9.688;2023-03-01T08:27:01;3.70;51.00
45044;DHT22;30784;48.490;9.688;2023-03-01T08:29:30;3.60;51.20
45044;DHT22;30784;48.490;9.688;2023-03-01T08:31:55;3.60;51.20
45044;DHT22;30784;48.490;9.688;2023-03-01T08:34:21;3.60;51.20
45044;DHT22;30784;48.490;9.688;2023-03-01T08:36:47;3.50;51.40
45044;DHT22;30784;48.490;9.688;2023-03-01T08:39:14;3.50;51.50
45044;DHT22;30784;48.490;9.688;2023-03-01T08:41:41;3.50;51.50
45044;DHT22;30784;48.490;9.688;2023-03-01T08:44:07;3.50;51.50
45044;DHT22;30784;48.490;9.688;2023-03-01T08:46:38;3.50;51.60
45044;DHT22;30784;48.490;9.688;2023-03-01T08:49:05;3.50;51.60
45044;DHT22;30784;48.490;9.688;2023-03-01T08:51:32;3.50;51.70
45044;DHT22;30784;48.490;9.688;2023-03-01T08:54:20;3.50;51.80
45044;DHT22;30784;48.490;9.688;2023-03-01T08:56:46;3.60;51.90
45044;DHT22;30784;48.490;9.688;2023-03-01T08:59:13;3.60;51.80
45044;DHT22;30784;48.490;9.688;2023-03-01T09:01:39;3.70;51.80
45044;DHT22;30784;48.490;9.688;2023-03-01T09:04:05;3.70;51.70
45044;DHT22;30784;48.490;9.688;2023-03-01T09:06:32;3.70;51.50
45044;DHT22;30784;48.490;9.688;2023-03-01T09:09:02;3.80;51.30
45044;DHT22;30784;48.490;9.688;2023-03-01T09:11:28;3.80;51.00
45044;DHT22;30784;48.490;9.688;2023-03-01T09:13:54;3.80;51.20
45044;DHT22;30784;48.490;9.688;2023-03-01T09:16:21;3.80;51.40
45044;DHT22;30784;48.490;9.688;2023-03-01T09:18:51;3.80;51.60
45044;DHT22;30784;48.490;9.688;2023-03-01T09:21:19;3.90;51.40
45044;DHT22;30784;48.490;9.688;2023-03-01T09:23:47;3.90;51.60
45044;DHT22;30784;48.490;9.688;2023-03-01T09:26:16;4.00;51.30
45044;DHT22;30784;48.490;9.688;2023-03-01T09:28:44;4.10;51.20
45044;DHT22;30784;48.490;9.688;2023-03-01T09:31:10;4.20;51.00
45044;DHT22;30784;48.490;9.688;2023-03-01T09:33:38;4.30;51.20
45044;DHT22;30784;48.490;9.688;2023-03-01T09:36:06;4.40;51.20
45044;DHT22;30784;48.490;9.688;2023-03-01T09:38:33;4.50;51.20
45044;DHT22;30784;48.490;9.688;2023-03-01T09:40:59;4.70;51.10
45044;DHT22;30784;48.490;9.688;2023-03-01T09:46:09;5.00;50.60
45044;DHT22;30784;48.490;9.688;2023-03-01T09:48:43;5.20;50.00
45044;DHT22;30784;48.490;9.688;2023-03-01T09:51:18;5.30;49.40
45044;DHT22;30784;48.490;9.688;2023-03-01T09:53:44;5.40;49.30
45044;DHT22;30784;48.490;9.688;2023-03-01T09:56:24;5.50;49.00
45044;DHT22;30784;48.490;9.688;2023-03-01T10:09:38;5.80;49.00
45044;DHT22;30784;48.490;9.688;2023-03-01T10:12:29;5.90;48.80
45044;DHT22;30784;48.490;9.688;2023-03-01T10:17:51;6.20;48.30
45044;DHT22;30784;48.490;9.688;2023-03-01T10:20:30;6.20;48.20
45044;DHT22;30784;48.490;9.688;2023-03-01T10:22:58;6.40;48.60
45044;DHT22;30784;48.490;9.688;2023-03-01T10:26:12;6.50;47.90
45044;DHT22;30784;48.490;9.688;2023-03-01T10:31:24;6.80;47.20
45044;DHT22;30784;48.490;9.688;2023-03-01T10:33:53;6.80;46.90
45044;DHT22;30784;48.490;9.688;2023-03-01T10:36:21;6.80;46.80
45044;DHT22;30784;48.490;9.688;2023-03-01T10:38:50;6.90;46.80
45044;DHT22;30784;48.490;9.688;2023-03-01T10:41:17;6.90;47.00
45044;DHT22;30784;48.490;9.688;2023-03-01T10:43:50;7.00;47.20
45044;DHT22;30784;48.490;9.688;2023-03-01T10:46:28;7.10;46.90
45044;DHT22;30784;48.490;9.688;2023-03-01T10:49:12;7.20;47.10
45044;DHT22;30784;48.490;9.688;2023-03-01T10:51:47;7.30;47.20
45044;DHT22;30784;48.490;9.688;2023-03-01T10:54:36;7.40;46.60
45044;DHT22;30784;48.490;9.688;2023-03-01T10:57:04;7.60;46.70
45044;DHT22;30784;48.490;9.688;2023-03-01T10:59:31;7.80;46.70
45044;DHT22;30784;48.490;9.688;2023-03-01T11:02:32;7.90;46.40
45044;DHT22;30784;48.490;9.688;2023-03-01T11:05:01;8.10;46.10
45044;DHT22;30784;48.490;9.688;2023-03-01T11:07:27;8.30;45.30
45044;DHT22;30784;48.490;9.688;2023-03-01T11:09:53;8.40;44.60
45044;DHT22;30784;48.490;9.688;2023-03-01T11:12:20;8.50;44.70
45044;DHT22;30784;48.490;9.688;2023-03-01T11:14:51;8.70;44.20
45044;DHT22;30784;48.490;9.688;2023-03-01T11:17:21;8.80;44.50
45044;DHT22;30784;48.490;9.688;2023-03-01T11:20:01;8.90;44.30
45044;DHT22;30784;48.490;9.688;2023-03-01T11:22:27;9.00;45.90
45044;DHT22;30784;48.490;9.688;2023-03-01T11:24:54;9.20;44.20
45044;DHT22;30784;48.490;9.688;2023-03-01T11:27:33;9.40;43.90
45044;DHT22;30784;48.490;9.688;2023-03-01T11:32:34;9.50;43.30
45044;DHT22;30784;48.490;9.688;2023-03-01T11:35:23;9.60;43.50
45044;DHT22;30784;48.490;9.688;2023-03-01T11:40:55;9.80;43.20
45044;DHT22;30784;48.490;9.688;2023-03-01T11:51:59;10.20;42.60
45044;DHT22;30784;48.490;9.688;2023-03-01T11:54:53;10.30;42.00
45044;DHT22;30784;48.490;9.688;2023-03-01T12:00:40;10.60;42.20
45044;DHT22;30784;48.490;9.688;2023-03-01T12:03:46;10.70;41.60
45044;DHT22;30784;48.490;9.688;2023-03-01T12:06:34;10.80;41.60
45044;DHT22;30784;48.490;9.688;2023-03-01T12:09:27;10.90;41.10
45044;DHT22;30784;48.490;9.688;2023-03-01T12:12:25;11.00;41.50
45044;DHT22;30784;48.490;9.688;2023-03-01T12:20:21;11.40;40.40
45044;DHT22;30784;48.490;9.688;2023-03-01T12:23:14;11.40;40.20
45044;DHT22;30784;48.490;9.688;2023-03-01T12:25:55;11.50;40.50
45044;DHT22;30784;48.490;9.688;2023-03-01T12:42:03;11.90;39.50
45044;DHT22;30784;48.490;9.688;2023-03-01T12:47:30;11.90;39.00
45044;DHT22;30784;48.490;9.688;2023-03-01T12:50:20;12.00;38.70
45044;DHT22;30784;48.490;9.688;2023-03-01T12:53:05;12.00;38.60
45044;DHT22;30784;48.490;9.688;2023-03-01T12:58:07;12.00;37.60
45044;DHT22;30784;48.490;9.688;2023-03-01T13:00:41;12.10;37.80
45044;DHT22;30784;48.490;9.688;2023-03-01T13:06:19;12.10;37.80
45044;DHT22;30784;48.490;9.688;2023-03-01T13:08:58;12.10;38.00
45044;DHT22;30784;48.490;9.688;2023-03-01T13:11:27;12.20;37.70
45044;DHT22;30784;48.490;9.688;2023-03-01T13:16:49;12.30;38.10
45044;DHT22;30784;48.490;9.688;2023-03-01T13:19:20;12.30;37.60
45044;DHT22;30784;48.490;9.688;2023-03-01T13:21:47;12.40;37.30
45044;DHT22;30784;48.490;9.688;2023-03-01T13:24:40;12.40;36.70
45044;DHT22;30784;48.490;9.688;2023-03-01T13:29:54;12.50;36.70
45044;DHT22;30784;48.490;9.688;2023-03-01T13:32:31;12.40;37.00
45044;DHT22;30784;48.490;9.688;2023-03-01T13:37:52;12.40;36.80
45044;DHT22;30784;48.490;9.688;2023-03-01T13:42:49;12.40;35.90
45044;DHT22;30784;48.490;9.688;2023-03-01T13:47:53;12.20;36.10
45044;DHT22;30784;48.490;9.688;2023-03-01T13:50:23;12.20;36.20
45044;DHT22;30784;48.490;9.688;2023-03-01T13:52:59;12.20;36.10
45044;DHT22;30784;48.490;9.688;2023-03-01T13:55:42;12.10;36.30
45044;DHT22;30784;48.490;9.688;2023-03-01T13:58:25;12.10;36.40
45044;DHT22;30784;48.490;9.688;2023-03-01T14:01:00;12.10;36.20
45044;DHT22;30784;48.490;9.688;2023-03-01T14:03:26;12.10;36.00
45044;DHT22;30784;48.490;9.688;2023-03-01T14:06:13;12.00;36.10
45044;DHT22;30784;48.490;9.688;2023-03-01T14:08:38;11.90;36.30
45044;DHT22;30784;48.490;9.688;2023-03-01T14:19:48;11.80;36.10
45044;DHT22;30784;48.490;9.688;2023-03-01T14:22:27;11.70;36.00
45044;DHT22;30784;48.490;9.688;2023-03-01T14:25:02;11.60;36.10
45044;DHT22;30784;48.490;9.688;2023-03-01T14:27:38;11.50;36.10
45044;DHT22;30784;48.490;9.688;2023-03-01T14:30:12;11.40;36.20
45044;DHT22;30784;48.490;9.688;2023-03-01T14:32:40;11.30;36.40
45044;DHT22;30784;48.490;9.688;2023-03-01T14:35:25;11.30;36.50
45044;DHT22;30784;48.490;9.688;2023-03-01T14:37:51;11.20;36.60
45044;DHT22;30784;48.490;9.688;2023-03-01T14:42:51;11.10;36.50
45044;DHT22;30784;48.490;9.688;2023-03-01T14:45:17;10.90;36.60
45044;DHT22;30784;48.490;9.688;2023-03-01T14:47:44;10.80;36.80
45044;DHT22;30784;48.490;9.688;2023-03-01T14:50:29;10.70;37.20
45044;DHT22;30784;48.490;9.688;2023-03-01T14:52:59;10.60;37.20
45044;DHT22;30784;48.490;9.688;2023-03-01T14:55:31;10.60;37.30
45044;DHT22;30784;48.490;9.688;2023-03-01T14:57:57;10.50;37.40
45044;DHT22;30784;48.490;9.688;2023-03-01T15:00:28;10.50;38.00
45044;DHT22;30784;48.490;9.688;2023-03-01T15:02:56;10.50;37.60
45044;DHT22;30784;48.490;9.688;2023-03-01T15:05:29;10.40;37.80
45044;DHT22;30784;48.490;9.688;2023-03-01T15:07:56;10.40;37.60
45044;DHT22;30784;48.490;9.688;2023-03-01T15:10:28;10.30;37.60
45044;DHT22;30784;48.490;9.688;2023-03-01T15:12:54;10.30;37.70
45044;DHT22;30784;48.490;9.688;2023-03-01T15:15:36;10.20;37.80
45044;DHT22;30784;48.490;9.688;2023-03-01T15:18:11;10.10;37.80
45044;DHT22;30784;48.490;9.688;2023-03-01T15:20:38;10.10;38.00
45044;DHT22;30784;48.490;9.688;2023-03-01T15:23:04;10.00;38.00
45044;DHT22;30784;48.490;9.688;2023-03-01T15:25:32;10.00;38.10
45044;DHT22;30784;48.490;9.688;2023-03-01T15:27:59;10.00;38.20
45044;DHT22;30784;48.490;9.688;2023-03-01T15:30:32;10.00;38.30
45044;DHT22;30784;48.490;9.688;2023-03-01T15:35:52;9.90;38.20
45044;DHT22;30784;48.490;9.688;2023-03-01T15:38:49;9.90;38.20
45044;DHT22;30784;48.490;9.688;2023-03-01T15:41:47;9.90;38.20
45044;DHT22;30784;48.490;9.688;2023-03-01T15:44:30;9.80;38.20
45044;DHT22;30784;48.490;9.688;2023-03-01T15:46:56;9.80;38.40
45044;DHT22;30784;48.490;9.688;2023-03-01T15:49:41;9.80;38.60
45044;DHT22;30784;48.490;9.688;2023-03-01T15:52:21;9.70;38.40
45044;DHT22;30784;48.490;9.688;2023-03-01T15:55:04;9.60;38.50
45044;DHT22;30784;48.490;9.688;2023-03-01T15:57:30;9.60;38.60
45044;DHT22;30784;48.490;9.688;2023-03-01T15:59:58;9.60;38.70
45044;DHT22;30784;48.490;9.688;2023-03-01T16:02:24;9.60;38.90
45044;DHT22;30784;48.490;9.688;2023-03-01T16:04:50;9.50;38.90
45044;DHT22;30784;48.490;9.688;2023-03-01T16:07:16;9.60;39.00
45044;DHT22;30784;48.490;9.688;2023-03-01T16:09:42;9.50;39.00
45044;DHT22;30784;48.490;9.688;2023-03-01T16:12:13;9.50;39.10
45044;DHT22;30784;48.490;9.688;2023-03-01T16:14:39;9.50;39.10
45044;DHT22;30784;48.490;9.688;2023-03-01T16:17:05;9.40;39.10
45044;DHT22;30784;48.490;9.688;2023-03-01T16:19:30;9.40;39.20
45044;DHT22;30784;48.490;9.688;2023-03-01T16:21:56;9.30;39.30
45044;DHT22;30784;48.490;9.688;2023-03-01T16:24:21;9.30;39.30
45044;DHT22;30784;48.490;9.688;2023-03-01T16:26:47;9.20;39.30
45044;DHT22;30784;48.490;9.688;2023-03-01T16:29:13;9.20;39.40
45044;DHT22;30784;48.490;9.688;2023-03-01T16:31:41;9.10;39.30
45044;DHT22;30784;48.490;9.688;2023-03-01T16:34:07;9.10;39.50
45044;DHT22;30784;48.490;9.688;2023-03-01T16:36:32;9.00;39.50
45044;DHT22;30784;48.490;9.688;2023-03-01T16:38:59;8.90;39.60
45044;DHT22;30784;48.490;9.688;2023-03-01T16:41:26;8.90;39.70
45044;DHT22;30784;48.490;9.688;2023-03-01T16:43:52;8.80;39.80
45044;DHT22;30784;48.490;9.688;2023-03-01T16:46:23;8.80;40.00
45044;DHT22;30784;48.490;9.688;2023-03-01T16:48:50;8.70;40.50
45044;DHT22;30784;48.490;9.688;2023-03-01T16:51:16;8.60;40.10
45044;DHT22;30784;48.490;9.688;2023-03-01T16:53:42;8.50;40.20
45044;DHT22;30784;48.490;9.688;2023-03-01T16:56:10;8.50;40.40
45044;DHT22;30784;48.490;9.688;2023-03-01T16:58:37;8.40;40.50
45044;DHT22;30784;48.490;9.688;2023-03-01T17:01:09;8.30;40.60
45044;DHT22;30784;48.490;9.688;2023-03-01T17:03:36;8.30;40.60
45044;DHT22;30784;48.490;9.688;2023-03-01T17:06:08;8.20;40.80
45044;DHT22;30784;48.490;9.688;2023-03-01T17:08:36;8.10;40.90
45044;DHT22;30784;48.490;9.688;2023-03-01T17:11:07;8.00;41.10
45044;DHT22;30784;48.490;9.688;2023-03-01T17:13:34;8.00;41.10
45044;DHT22;30784;48.490;9.688;2023-03-01T17:16:01;8.00;41.20
45044;DHT22;30784;48.490;9.688;2023-03-01T17:18:27;7.90;41.20
45044;DHT22;30784;48.490;9.688;2023-03-01T17:20:52;7.80;41.30
45044;DHT22;30784;48.490;9.688;2023-03-01T17:23:18;7.80;41.50
45044;DHT22;30784;48.490;9.688;2023-03-01T17:25:44;7.70;41.70
45044;DHT22;30784;48.490;9.688;2023-03-01T17:28:13;7.70;41.60
45044;DHT22;30784;48.490;9.688;2023-03-01T17:30:45;7.60;41.80
45044;DHT22;30784;48.490;9.688;2023-03-01T17:33:12;7.60;41.80
45044;DHT22;30784;48.490;9.688;2023-03-01T17:35:38;7.60;41.90